createdAt,value
2018-04-10T00:00:23.683Z,57.16
2018-04-10T00:03:26.149Z,56.36
2018-04-10T00:06:28.669Z,57.36
2018-04-10T00:09:31.145Z,56.90
2018-04-10T00:12:33.610Z,57.97
2018-04-10T00:15:36.123Z,57.01
2018-04-10T00:18:38.584Z,56.81
2018-04-10T00:21:41.183Z,56.80
2018-04-10T00:24:43.867Z,56.76
2018-04-10T00:27:46.399Z,56.97
2018-04-10T00:30:48.845Z,56.56
2018-04-10T00:33:51.362Z,57.39
2018-04-10T00:36:53.879Z,57.39
2018-04-10T00:39:56.354Z,58.25
2018-04-10T00:42:58.894Z,59.12
2018-04-10T00:49:10.203Z,58.35
2018-04-10T00:52:12.640Z,58.37
2018-04-10T00:55:15.115Z,57.93
2018-04-10T00:58:17.704Z,57.76
2018-04-10T01:01:20.332Z,58.14
2018-04-10T01:04:22.778Z,58.20
2018-04-10T01:07:25.266Z,58.35
2018-04-10T01:10:27.850Z,58.98
2018-04-10T01:13:30.333Z,58.87
2018-04-10T01:16:32.852Z,58.06
2018-04-10T01:19:35.537Z,58.05
2018-04-10T01:22:38.037Z,57.35
2018-04-10T01:25:40.525Z,57.72
2018-04-10T01:28:42.972Z,58.09
2018-04-10T01:31:45.483Z,58.06
2018-04-10T01:34:47.972Z,58.58
2018-04-10T01:37:50.453Z,59.09
2018-04-10T01:40:52.962Z,59.91
2018-04-10T01:43:55.458Z,60.60
2018-04-10T01:46:57.928Z,60.18
2018-04-10T01:50:00.404Z,59.87
2018-04-10T01:53:02.903Z,60.07
2018-04-10T01:56:05.408Z,60.60
2018-04-10T01:59:07.858Z,60.38
2018-04-10T02:02:10.398Z,60.03
2018-04-10T02:05:12.881Z,60.08
2018-04-10T02:08:15.473Z,60.12
2018-04-10T02:11:18.083Z,60.44
2018-04-10T02:14:20.611Z,60.64
2018-04-10T02:17:23.109Z,59.83
2018-04-10T02:20:25.630Z,59.73
2018-04-10T02:23:28.143Z,60.09
2018-04-10T02:26:31.513Z,60.29
2018-04-10T02:29:34.175Z,60.46
2018-04-10T02:32:36.706Z,62.15
2018-04-10T02:35:39.182Z,62.89
2018-04-10T02:38:41.691Z,63.37
2018-04-10T02:41:44.222Z,64.22
2018-04-10T02:44:46.788Z,64.60
2018-04-10T02:47:49.355Z,65.96
2018-04-10T02:50:51.953Z,66.87
2018-04-10T02:53:54.449Z,66.96
2018-04-10T02:56:56.983Z,67.16
2018-04-10T02:59:59.462Z,67.69
2018-04-10T03:03:01.981Z,67.88
2018-04-10T03:06:04.633Z,68.24
2018-04-10T03:09:07.139Z,68.29
2018-04-10T03:12:09.721Z,68.83
2018-04-10T03:15:12.219Z,69.58
2018-04-10T03:18:14.749Z,69.42
2018-04-10T03:21:17.257Z,69.81
2018-04-10T03:24:19.793Z,69.86
2018-04-10T03:27:22.271Z,69.88
2018-04-10T03:30:24.923Z,67.46
2018-04-10T03:33:27.413Z,65.72
2018-04-10T03:36:29.954Z,65.33
2018-04-10T03:39:32.512Z,64.02
2018-04-10T03:42:35.008Z,64.99
2018-04-10T03:45:37.567Z,66.22
2018-04-10T03:48:40.162Z,67.49
2018-04-10T03:51:42.765Z,68.18
2018-04-10T03:54:45.230Z,69.42
2018-04-10T03:57:47.804Z,69.74
2018-04-10T04:00:50.323Z,70.31
2018-04-10T04:03:52.909Z,70.16
2018-04-10T04:06:55.476Z,70.45
2018-04-10T04:09:58.045Z,71.76
2018-04-10T04:13:00.526Z,72.63
2018-04-10T04:16:03.033Z,73.24
2018-04-10T04:19:17.212Z,74.24
2018-04-10T04:22:43.410Z,75.04
2018-04-10T04:25:45.906Z,75.30
2018-04-10T04:28:48.379Z,75.57
2018-04-10T04:31:50.881Z,75.54
2018-04-10T04:34:53.433Z,75.38
2018-04-10T04:37:55.992Z,75.14
2018-04-10T04:40:58.460Z,74.70
2018-04-10T04:44:00.971Z,74.12
2018-04-10T04:47:03.505Z,73.45
2018-04-10T04:50:05.966Z,73.03
2018-04-10T04:53:08.473Z,73.57
2018-04-10T04:56:10.948Z,74.38
2018-04-10T04:59:13.398Z,75.24
2018-04-10T05:02:15.891Z,75.75
2018-04-10T05:05:18.551Z,75.96
2018-04-10T05:08:20.996Z,75.79
2018-04-10T05:11:23.492Z,76.29
2018-04-10T05:14:25.932Z,76.35
2018-04-10T05:17:28.497Z,75.87
2018-04-10T05:20:30.951Z,75.60
2018-04-10T05:23:33.521Z,75.76
2018-04-10T05:26:36.176Z,75.56
2018-04-10T05:29:38.756Z,75.68
2018-04-10T05:32:41.272Z,73.83
2018-04-10T05:35:43.780Z,74.14
2018-04-10T05:38:46.251Z,75.06
2018-04-10T05:41:48.705Z,75.23
2018-04-10T05:44:51.207Z,75.11
2018-04-10T05:47:53.723Z,74.78
2018-04-10T05:50:56.281Z,73.91
2018-04-10T05:53:58.747Z,72.43
2018-04-10T05:57:01.298Z,72.72
2018-04-10T06:00:03.857Z,72.09
2018-04-10T06:03:06.324Z,72.50
2018-04-10T06:06:08.832Z,72.10
2018-04-10T06:09:11.343Z,71.57
2018-04-10T06:12:13.834Z,70.40
2018-04-10T06:15:16.342Z,70.10
2018-04-10T06:18:18.887Z,70.75
2018-04-10T06:21:21.390Z,69.26
2018-04-10T06:24:23.942Z,68.49
2018-04-10T06:27:26.463Z,67.90
2018-04-10T06:30:28.968Z,68.45
2018-04-10T06:33:31.469Z,68.57
2018-04-10T06:36:33.962Z,68.34
2018-04-10T06:39:36.484Z,68.87
2018-04-10T06:42:38.926Z,67.10
2018-04-10T06:45:41.444Z,65.62
2018-04-10T06:48:43.933Z,65.15
2018-04-10T06:51:46.436Z,62.92
2018-04-10T06:54:48.943Z,62.34
2018-04-10T06:57:51.435Z,62.31
2018-04-10T07:00:53.955Z,61.17
2018-04-10T07:03:56.488Z,65.59
2018-04-10T07:06:58.963Z,65.65
2018-04-10T07:10:01.488Z,63.95
2018-04-10T07:13:03.974Z,66.27
2018-04-10T07:16:06.495Z,64.97
2018-04-10T07:19:08.968Z,64.70
2018-04-10T07:22:11.544Z,66.87
2018-04-10T07:25:14.129Z,68.25
2018-04-10T07:28:16.747Z,67.33
2018-04-10T07:31:19.210Z,65.01
2018-04-10T07:34:21.720Z,62.78
2018-04-10T07:37:24.212Z,61.42
2018-04-10T07:40:26.723Z,62.42
2018-04-10T07:43:29.281Z,60.57
2018-04-10T07:46:31.833Z,60.12
2018-04-10T07:49:34.345Z,60.41
2018-04-10T07:52:36.847Z,60.89
2018-04-10T07:55:39.366Z,61.13
2018-04-10T07:58:41.947Z,62.51
2018-04-10T08:01:44.455Z,60.35
2018-04-10T08:04:47.005Z,60.85
2018-04-10T08:07:49.509Z,60.27
2018-04-10T08:10:51.965Z,63.16
2018-04-10T08:13:54.465Z,60.76
2018-04-10T08:16:57.026Z,59.78
2018-04-10T08:19:59.538Z,63.00
2018-04-10T08:23:02.100Z,60.83
2018-04-10T08:26:04.628Z,63.18
2018-04-10T08:29:07.127Z,62.04
2018-04-10T08:32:09.612Z,62.43
2018-04-10T08:35:12.133Z,63.43
2018-04-10T08:38:14.600Z,61.18
2018-04-10T08:41:17.207Z,61.05
2018-04-10T08:44:19.809Z,61.01
2018-04-10T08:47:22.346Z,64.18
2018-04-10T08:50:24.828Z,61.52
2018-04-10T08:53:27.315Z,61.05
2018-04-10T08:56:29.753Z,63.63
2018-04-10T08:59:32.412Z,63.56
2018-04-10T09:02:34.928Z,62.99
2018-04-10T09:05:37.420Z,63.02
2018-04-10T09:08:39.928Z,61.50
2018-04-10T09:11:42.428Z,62.77
2018-04-10T09:14:45.056Z,61.92
2018-04-10T09:17:47.547Z,61.42
2018-04-10T09:20:50.348Z,62.03
2018-04-10T09:23:52.912Z,60.69
2018-04-10T09:26:55.473Z,59.81
2018-04-10T09:29:57.965Z,60.66
2018-04-10T09:33:00.498Z,59.57
2018-04-10T09:36:03.013Z,59.86
2018-04-10T09:39:06.317Z,59.57
2018-04-10T09:42:08.802Z,60.99
2018-04-10T09:45:11.311Z,61.01
2018-04-10T09:48:13.787Z,60.11
2018-04-10T09:51:16.390Z,59.20
2018-04-10T09:54:18.857Z,59.78
2018-04-10T09:57:21.421Z,60.01
2018-04-10T10:00:29.667Z,58.29
2018-04-10T10:03:32.132Z,59.16
2018-04-10T10:06:34.600Z,60.12
2018-04-10T10:09:37.109Z,57.32
2018-04-10T10:12:39.690Z,59.28
2018-04-10T10:15:42.208Z,57.31
2018-04-10T10:18:44.727Z,58.39
2018-04-10T10:21:47.251Z,57.02
2018-04-10T10:24:49.738Z,55.35
2018-04-10T10:27:52.218Z,53.68
2018-04-10T10:30:54.746Z,53.98
2018-04-10T10:33:57.246Z,56.46
2018-04-10T10:36:59.777Z,54.04
2018-04-10T10:40:02.271Z,53.30
2018-04-10T10:43:04.717Z,54.92
2018-04-10T10:46:07.204Z,55.02
2018-04-10T10:49:09.674Z,54.14
2018-04-10T10:52:12.187Z,53.64
2018-04-10T10:55:14.822Z,53.89
2018-04-10T10:58:17.381Z,54.71
2018-04-10T11:01:19.853Z,55.00
2018-04-10T11:04:22.338Z,55.60
2018-04-10T11:07:24.807Z,55.42
2018-04-10T11:10:27.266Z,55.40
2018-04-10T11:13:29.756Z,55.03
2018-04-10T11:16:32.311Z,56.61
2018-04-10T11:19:34.773Z,52.53
2018-04-10T11:22:37.317Z,54.33
2018-04-10T11:25:39.780Z,53.46
2018-04-10T11:28:42.341Z,52.94
2018-04-10T11:31:44.912Z,53.53
2018-04-10T11:34:47.409Z,54.91
2018-04-10T11:37:49.939Z,55.69
2018-04-10T11:40:52.479Z,54.33
2018-04-10T11:43:55.024Z,53.79
2018-04-10T11:46:57.561Z,53.64
2018-04-10T11:50:00.054Z,54.71
2018-04-10T11:53:02.538Z,56.55
2018-04-10T11:56:05.072Z,54.08
2018-04-10T11:59:07.538Z,52.98
2018-04-10T12:02:10.184Z,53.97
2018-04-10T12:05:12.848Z,51.69
2018-04-10T12:08:15.338Z,52.50
2018-04-10T12:11:17.968Z,53.46
2018-04-10T12:14:20.471Z,52.65
2018-04-10T12:17:22.977Z,49.40
2018-04-10T12:20:25.548Z,50.27
2018-04-10T12:23:28.008Z,51.88
2018-04-10T12:26:30.519Z,51.01
2018-04-10T12:29:32.988Z,50.15
2018-04-10T12:32:35.593Z,51.02
2018-04-10T12:35:38.114Z,51.16
2018-04-10T12:38:40.628Z,52.36
2018-04-10T12:41:43.154Z,51.20
2018-04-10T12:44:45.849Z,51.88
2018-04-10T12:47:48.344Z,50.38
2018-04-10T12:50:50.873Z,49.23
2018-04-10T12:53:53.432Z,49.85
2018-04-10T12:56:55.934Z,49.56
2018-04-10T12:59:58.458Z,49.40
2018-04-10T13:03:01.063Z,48.05
2018-04-10T13:06:03.537Z,50.06
2018-04-10T13:09:07.051Z,51.08
2018-04-10T13:12:09.557Z,49.40
2018-04-10T13:15:12.090Z,48.54
2018-04-10T13:18:14.569Z,49.32
2018-04-10T13:21:17.076Z,49.56
2018-04-10T13:24:19.626Z,50.17
2018-04-10T13:27:22.133Z,49.89
2018-04-10T13:30:24.649Z,48.84
2018-04-10T13:33:27.209Z,49.92
2018-04-10T13:36:29.686Z,48.95
2018-04-10T13:39:32.277Z,49.45
2018-04-10T13:42:34.769Z,48.78
2018-04-10T13:45:37.268Z,49.33
2018-04-10T13:48:39.826Z,51.09
2018-04-10T13:51:42.280Z,50.43
2018-04-10T13:54:44.802Z,49.40
2018-04-10T13:57:47.330Z,48.64
2018-04-10T14:00:49.858Z,48.34
2018-04-10T14:03:52.382Z,48.57
2018-04-10T14:06:54.914Z,47.44
2018-04-10T14:09:57.407Z,49.91
2018-04-10T14:12:59.917Z,48.42
2018-04-10T14:16:02.418Z,47.55
2018-04-10T14:19:04.870Z,48.30
2018-04-10T14:22:07.394Z,48.99
2018-04-10T14:25:09.850Z,49.05
2018-04-10T14:28:12.471Z,49.56
2018-04-10T14:31:14.931Z,48.73
2018-04-10T14:34:17.433Z,49.46
2018-04-10T14:37:19.950Z,47.97
2018-04-10T14:40:22.450Z,49.26
2018-04-10T14:43:24.955Z,47.67
2018-04-10T14:46:27.521Z,48.29
2018-04-10T14:49:30.047Z,49.18
2018-04-10T14:52:32.517Z,49.33
2018-04-10T14:55:35.017Z,48.31
2018-04-10T14:58:37.500Z,47.61
2018-04-10T15:01:40.042Z,48.34
2018-04-10T15:04:42.510Z,49.45
2018-04-10T15:07:45.211Z,48.56
2018-04-10T15:10:47.708Z,49.11
2018-04-10T15:13:50.324Z,48.96
2018-04-10T15:16:52.817Z,48.33
2018-04-10T15:19:55.421Z,48.21
2018-04-10T15:22:57.871Z,48.68
2018-04-10T15:26:00.388Z,48.70
2018-04-10T15:29:02.878Z,48.50
2018-04-10T15:32:05.450Z,48.52
2018-04-10T15:35:08.861Z,48.78
2018-04-10T15:38:11.355Z,48.21
2018-04-10T15:41:13.844Z,48.91
2018-04-10T15:44:16.391Z,49.26
2018-04-10T15:47:18.903Z,50.01
2018-04-10T15:50:21.534Z,48.30
2018-04-10T15:53:24.123Z,49.37
2018-04-10T15:56:26.733Z,49.69
2018-04-10T15:59:29.158Z,49.75
2018-04-10T16:02:31.646Z,49.14
2018-04-10T16:05:34.135Z,48.55
2018-04-10T16:08:36.737Z,48.82
2018-04-10T16:11:39.299Z,48.86
2018-04-10T16:14:41.847Z,48.28
2018-04-10T16:17:44.354Z,49.53
2018-04-10T16:20:46.816Z,48.92
2018-04-10T16:23:49.370Z,49.56
2018-04-10T16:26:51.855Z,48.52
2018-04-10T16:29:54.371Z,48.75
2018-04-10T16:32:56.876Z,50.78
2018-04-10T16:35:59.372Z,51.15
2018-04-10T16:39:01.961Z,50.59
2018-04-10T16:42:04.443Z,50.86
2018-04-10T16:45:07.020Z,50.85
2018-04-10T16:48:09.486Z,50.78
2018-04-10T16:51:12.050Z,50.19
2018-04-10T16:54:14.552Z,51.11
2018-04-10T16:57:17.094Z,50.02
2018-04-10T17:00:19.626Z,49.59
2018-04-10T17:03:22.150Z,50.53
2018-04-10T17:06:24.657Z,50.56
2018-04-10T17:09:27.131Z,50.06
2018-04-10T17:12:29.713Z,50.33
2018-04-10T17:15:32.375Z,50.41
2018-04-10T17:18:34.964Z,50.48
2018-04-10T17:21:38.347Z,49.94
2018-04-10T17:24:40.841Z,50.81
2018-04-10T17:27:43.379Z,50.53
2018-04-10T17:30:45.982Z,51.23
2018-04-10T17:33:48.497Z,50.90
2018-04-10T17:36:51.060Z,50.42
2018-04-10T17:39:53.590Z,51.30
2018-04-10T17:42:56.095Z,52.00
2018-04-10T17:45:58.666Z,52.46
2018-04-10T17:49:01.307Z,52.76
2018-04-10T17:52:03.884Z,54.10
2018-04-10T17:55:06.438Z,54.41
2018-04-10T17:58:08.948Z,54.73
2018-04-10T18:01:11.471Z,55.10
2018-04-10T18:04:13.991Z,55.37
2018-04-10T18:07:16.483Z,55.61
2018-04-10T18:10:18.975Z,55.73
2018-04-10T18:13:21.499Z,55.84
2018-04-10T18:16:24.028Z,56.17
2018-04-10T18:19:26.547Z,56.29
2018-04-10T18:22:29.094Z,56.75
2018-04-10T18:25:31.565Z,57.45
2018-04-10T18:28:34.087Z,57.42
2018-04-10T18:31:36.610Z,58.12
2018-04-10T18:34:39.148Z,59.32
2018-04-10T18:37:41.618Z,59.35
2018-04-10T18:40:44.145Z,59.76
2018-04-10T18:43:46.640Z,60.15
2018-04-10T18:46:49.965Z,60.28
2018-04-10T18:49:52.480Z,60.64
2018-04-10T18:52:54.951Z,61.00
2018-04-10T18:55:57.484Z,61.20
2018-04-10T18:59:00.051Z,61.71
2018-04-10T19:02:02.614Z,61.98
2018-04-10T19:05:05.100Z,62.95
2018-04-10T19:08:07.760Z,63.69
2018-04-10T19:11:10.268Z,64.07
2018-04-10T19:14:12.782Z,64.83
2018-04-10T19:17:15.330Z,65.14
2018-04-10T19:20:17.862Z,65.43
2018-04-10T19:23:20.372Z,64.92
2018-04-10T19:26:22.908Z,65.85
2018-04-10T19:29:25.406Z,66.40
2018-04-10T19:32:29.274Z,66.91
2018-04-10T19:35:31.771Z,67.43
2018-04-10T19:38:34.261Z,67.48
2018-04-10T19:41:36.802Z,67.14
2018-04-10T19:44:39.285Z,66.89
2018-04-10T19:47:41.780Z,67.05
2018-04-10T19:50:44.348Z,67.64
2018-04-10T19:53:46.973Z,68.54
2018-04-10T19:56:49.459Z,68.44
2018-04-10T19:59:51.987Z,68.37
2018-04-10T20:02:54.450Z,68.41
2018-04-10T20:05:57.040Z,68.49
2018-04-10T20:08:59.547Z,68.65
2018-04-10T20:12:02.113Z,69.33
2018-04-10T20:15:04.657Z,69.62
2018-04-10T20:18:07.158Z,70.04
2018-04-10T20:21:09.687Z,70.01
2018-04-10T20:24:12.201Z,70.07
2018-04-10T20:27:14.764Z,70.58
2018-04-10T20:30:17.282Z,70.16
2018-04-10T20:33:19.783Z,70.12
2018-04-10T20:36:22.299Z,70.86
2018-04-10T20:39:25.035Z,70.96
2018-04-10T20:42:27.762Z,71.01
2018-04-10T20:45:30.363Z,71.01
2018-04-10T20:48:32.919Z,71.15
2018-04-10T20:51:35.404Z,71.61
2018-04-10T20:54:37.909Z,71.87
2018-04-10T20:57:40.408Z,72.02
2018-04-10T21:00:42.996Z,72.00
2018-04-10T21:03:45.586Z,72.27
2018-04-10T21:06:48.081Z,72.97
2018-04-10T21:09:50.619Z,73.55
2018-04-10T21:12:53.184Z,73.31
2018-04-10T21:15:55.682Z,73.51
2018-04-10T21:18:58.257Z,73.65
2018-04-10T21:22:00.755Z,74.09
2018-04-10T21:25:03.391Z,73.68
2018-04-10T21:28:05.894Z,74.06
2018-04-10T21:31:08.413Z,74.45
2018-04-10T21:34:10.889Z,74.76
2018-04-10T21:37:13.429Z,75.16
2018-04-10T21:40:15.954Z,75.90
2018-04-10T21:43:24.045Z,75.83
2018-04-10T21:46:26.577Z,76.15
2018-04-10T21:49:29.069Z,76.33
2018-04-10T21:52:31.556Z,76.31
2018-04-10T21:55:34.079Z,76.26
2018-04-10T21:58:36.576Z,76.60
2018-04-10T22:01:39.109Z,77.09
2018-04-10T22:04:41.606Z,77.27
2018-04-10T22:07:44.133Z,77.57
2018-04-10T22:10:46.723Z,77.96
2018-04-10T22:13:49.305Z,78.13
2018-04-10T22:16:51.850Z,78.38
2018-04-10T22:19:54.345Z,78.85
2018-04-10T22:22:56.809Z,79.20
2018-04-10T22:25:59.338Z,79.43
2018-04-10T22:29:01.856Z,79.86
2018-04-10T22:32:04.300Z,80.03
2018-04-10T22:35:07.712Z,80.36
2018-04-10T22:38:10.259Z,80.40
2018-04-10T22:41:12.720Z,80.49
2018-04-10T22:44:15.314Z,80.40
2018-04-10T22:47:17.834Z,80.87
2018-04-10T22:50:20.419Z,81.19
2018-04-10T22:53:22.918Z,81.34
2018-04-10T22:56:25.433Z,81.62
2018-04-10T22:59:27.925Z,81.94
2018-04-10T23:02:30.875Z,82.40
2018-04-10T23:05:33.549Z,82.75
2018-04-10T23:08:36.012Z,82.79
2018-04-10T23:11:38.527Z,82.94
2018-04-10T23:14:41.050Z,83.56
2018-04-10T23:17:43.537Z,83.58
2018-04-10T23:20:46.177Z,83.68
2018-04-10T23:23:48.745Z,83.81
2018-04-10T23:26:51.282Z,83.86
2018-04-10T23:29:53.870Z,84.26
2018-04-10T23:32:56.370Z,84.11
2018-04-10T23:35:58.833Z,84.10
2018-04-10T23:39:01.570Z,84.17
2018-04-10T23:42:04.129Z,84.97
2018-04-10T23:45:06.621Z,85.17
2018-04-10T23:48:09.130Z,85.26
2018-04-10T23:51:11.668Z,85.19
2018-04-10T23:54:14.182Z,85.48
2018-04-10T23:57:16.690Z,85.33
